createdAt,value
2023-05-09T00:01:32.371Z,56.60
2023-05-09T00:04:17.617Z,56.79
2023-05-09T00:07:02.365Z,57.33
2023-05-09T00:09:47.497Z,56.71
2023-05-09T00:12:32.563Z,57.28
2023-05-09T00:15:17.465Z,57.45
2023-05-09T00:18:02.690Z,57.85
2023-05-09T00:20:47.521Z,57.86
2023-05-09T00:23:32.659Z,57.23
2023-05-09T00:26:17.684Z,57.65
2023-05-09T00:29:02.608Z,57.44
2023-05-09T00:31:47.575Z,57.95
2023-05-09T00:34:32.637Z,57.53
2023-05-09T00:37:17.575Z,57.39
2023-05-09T00:40:02.564Z,57.25
2023-05-09T00:42:47.705Z,56.81
2023-05-09T00:45:32.631Z,57.39
2023-05-09T00:48:17.712Z,57.65
2023-05-09T00:51:02.645Z,57.93
2023-05-09T00:53:47.567Z,57.83
2023-05-09T00:56:32.503Z,57.64
2023-05-09T00:59:17.601Z,57.26
2023-05-09T01:02:02.550Z,57.83
2023-05-09T01:04:47.396Z,57.12
2023-05-09T01:07:32.481Z,57.39
2023-05-09T01:10:17.361Z,58.38
2023-05-09T01:13:02.351Z,58.88
2023-05-09T01:15:47.215Z,59.20
2023-05-09T01:18:32.354Z,58.96
2023-05-09T01:21:17.278Z,59.19
2023-05-09T01:24:02.349Z,59.13
2023-05-09T01:26:47.338Z,59.33
2023-05-09T01:29:32.262Z,59.89
2023-05-09T01:32:17.312Z,59.31
2023-05-09T01:35:02.205Z,59.28
2023-05-09T01:37:47.272Z,59.46
2023-05-09T01:40:32.332Z,59.09
2023-05-09T01:43:17.456Z,60.10
2023-05-09T01:46:02.286Z,60.18
2023-05-09T01:48:47.334Z,59.52
2023-05-09T01:51:32.620Z,60.01
2023-05-09T01:54:17.543Z,60.14
2023-05-09T01:57:02.720Z,60.37
2023-05-09T01:59:47.698Z,60.54
2023-05-09T02:02:32.944Z,61.46
2023-05-09T02:05:17.856Z,60.66
2023-05-09T02:08:02.846Z,60.53
2023-05-09T02:10:47.897Z,60.93
2023-05-09T02:13:32.853Z,61.63
2023-05-09T02:16:19.039Z,61.97
2023-05-09T02:19:05.645Z,62.15
2023-05-09T02:21:50.796Z,61.99
2023-05-09T02:24:35.883Z,62.70
2023-05-09T02:27:20.822Z,62.46
2023-05-09T02:30:05.952Z,62.97
2023-05-09T02:32:50.815Z,62.30
2023-05-09T02:35:35.824Z,62.02
2023-05-09T02:38:20.705Z,62.48
2023-05-09T02:41:05.747Z,62.13
2023-05-09T02:43:50.743Z,61.34
2023-05-09T02:46:35.893Z,61.43
2023-05-09T02:49:31.636Z,61.76
2023-05-09T02:52:17.604Z,62.57
2023-05-09T02:55:02.530Z,61.89
2023-05-09T02:57:47.311Z,61.74
2023-05-09T03:00:32.381Z,61.13
2023-05-09T03:03:17.564Z,60.87
2023-05-09T03:06:02.655Z,60.23
2023-05-09T03:08:47.514Z,60.96
2023-05-09T03:11:32.722Z,61.42
2023-05-09T03:14:17.633Z,60.87
2023-05-09T03:17:02.798Z,60.87
2023-05-09T03:19:47.892Z,60.94
2023-05-09T03:22:32.965Z,60.94
2023-05-09T03:25:18.205Z,61.10
2023-05-09T03:28:02.935Z,61.29
2023-05-09T03:30:48.134Z,61.44
2023-05-09T03:33:33.147Z,61.16
2023-05-09T03:36:18.292Z,61.44
2023-05-09T03:39:03.219Z,61.70
2023-05-09T03:41:48.256Z,61.93
2023-05-09T03:44:33.320Z,61.90
2023-05-09T03:47:18.230Z,61.79
2023-05-09T03:50:03.318Z,61.61
2023-05-09T03:52:48.223Z,61.83
2023-05-09T03:55:33.297Z,61.82
2023-05-09T03:58:18.326Z,61.75
2023-05-09T04:01:03.442Z,62.11
2023-05-09T04:03:48.533Z,62.60
2023-05-09T04:06:33.534Z,62.39
2023-05-09T04:09:18.584Z,62.51
2023-05-09T04:12:03.498Z,61.89
2023-05-09T04:14:49.108Z,61.34
2023-05-09T04:17:33.975Z,60.75
2023-05-09T04:20:19.030Z,61.07
2023-05-09T04:23:04.192Z,61.41
2023-05-09T04:25:49.141Z,60.95
2023-05-09T04:28:34.138Z,61.18
2023-05-09T04:31:19.290Z,60.84
2023-05-09T04:34:04.216Z,60.48
2023-05-09T04:36:49.255Z,60.04
2023-05-09T04:39:34.396Z,60.38
2023-05-09T04:42:19.254Z,60.15
2023-05-09T04:45:04.257Z,60.51
2023-05-09T04:47:49.343Z,59.93
2023-05-09T04:50:34.263Z,60.26
2023-05-09T04:53:19.327Z,60.31
2023-05-09T04:56:04.156Z,59.90
2023-05-09T04:58:49.102Z,58.48
2023-05-09T05:01:34.077Z,57.96
2023-05-09T05:04:20.207Z,57.02
2023-05-09T05:07:05.233Z,56.60
2023-05-09T05:09:50.089Z,56.79
2023-05-09T05:12:35.190Z,55.88
2023-05-09T05:15:20.179Z,55.69
2023-05-09T05:18:05.455Z,55.18
2023-05-09T05:20:50.123Z,53.37
2023-05-09T05:23:35.157Z,54.53
2023-05-09T05:26:19.973Z,55.23
2023-05-09T05:29:05.141Z,53.40
2023-05-09T05:31:50.350Z,53.15
2023-05-09T05:34:35.283Z,54.04
2023-05-09T05:37:20.420Z,52.14
2023-05-09T05:40:05.409Z,52.39
2023-05-09T05:42:50.490Z,51.24
2023-05-09T05:45:35.355Z,50.01
2023-05-09T05:48:20.586Z,50.57
2023-05-09T05:51:05.623Z,50.67
2023-05-09T05:53:50.571Z,50.72
2023-05-09T05:56:35.659Z,51.02
2023-05-09T05:59:20.611Z,50.50
2023-05-09T06:02:05.787Z,49.88
2023-05-09T06:04:50.654Z,48.75
2023-05-09T06:07:35.636Z,47.13
2023-05-09T06:10:20.623Z,46.63
2023-05-09T06:13:05.307Z,44.72
2023-05-09T06:15:50.203Z,44.23
2023-05-09T06:18:35.168Z,43.25
2023-05-09T06:21:20.277Z,43.00
2023-05-09T06:24:11.773Z,43.45
2023-05-09T06:26:59.210Z,45.84
2023-05-09T06:29:44.173Z,46.97
2023-05-09T06:32:29.163Z,48.47
2023-05-09T06:35:14.432Z,49.40
2023-05-09T06:37:59.791Z,49.22
2023-05-09T06:40:44.634Z,50.02
2023-05-09T06:43:29.697Z,49.55
2023-05-09T06:46:14.717Z,48.54
2023-05-09T06:48:59.672Z,48.36
2023-05-09T06:51:44.436Z,46.99
2023-05-09T06:54:29.594Z,46.68
2023-05-09T06:57:14.720Z,46.55
2023-05-09T06:59:59.553Z,45.69
2023-05-09T07:02:44.668Z,43.58
2023-05-09T07:05:29.788Z,40.22
2023-05-09T07:08:14.660Z,38.38
2023-05-09T07:10:59.609Z,37.81
2023-05-09T07:13:44.650Z,35.53
2023-05-09T07:16:29.666Z,33.65
2023-05-09T07:19:14.748Z,33.27
2023-05-09T07:21:59.755Z,33.80
2023-05-09T07:24:44.859Z,33.61
2023-05-09T07:27:30.033Z,35.35
2023-05-09T07:30:15.112Z,34.28
2023-05-09T07:33:00.172Z,38.17
2023-05-09T07:35:45.116Z,40.24
2023-05-09T07:38:29.976Z,41.25
2023-05-09T07:41:14.878Z,41.82
2023-05-09T07:43:59.775Z,43.34
2023-05-09T07:46:44.950Z,44.18
2023-05-09T07:49:29.860Z,44.29
2023-05-09T07:52:14.965Z,44.82
2023-05-09T07:54:59.991Z,44.55
2023-05-09T07:57:45.116Z,44.77
2023-05-09T08:00:30.168Z,44.86
2023-05-09T08:03:15.273Z,45.45
2023-05-09T08:06:00.725Z,46.68
2023-05-09T08:08:45.585Z,45.60
2023-05-09T08:11:30.842Z,47.48
2023-05-09T08:14:15.801Z,47.10
2023-05-09T08:17:00.647Z,47.73
2023-05-09T08:19:45.569Z,47.70
2023-05-09T08:22:30.577Z,49.51
2023-05-09T08:25:15.840Z,47.28
2023-05-09T08:28:01.034Z,47.98
2023-05-09T08:30:46.168Z,48.56
2023-05-09T08:33:31.114Z,47.94
2023-05-09T08:36:16.230Z,48.10
2023-05-09T08:39:01.090Z,48.38
2023-05-09T08:41:46.246Z,50.46
2023-05-09T08:44:31.162Z,48.75
2023-05-09T08:47:16.180Z,49.99
2023-05-09T08:50:01.330Z,47.83
2023-05-09T08:52:46.206Z,49.29
2023-05-09T08:55:31.357Z,49.71
2023-05-09T08:58:16.306Z,49.77
2023-05-09T09:01:01.357Z,47.22
2023-05-09T09:03:46.181Z,47.82
2023-05-09T09:06:31.263Z,48.98
2023-05-09T09:09:16.198Z,47.95
2023-05-09T09:12:01.238Z,47.70
2023-05-09T09:14:46.278Z,46.69
2023-05-09T09:17:31.262Z,47.75
2023-05-09T09:20:16.585Z,46.54
2023-05-09T09:23:01.709Z,45.65
2023-05-09T09:25:46.873Z,48.39
2023-05-09T09:28:31.863Z,45.74
2023-05-09T09:31:17.204Z,46.13
2023-05-09T09:34:02.303Z,46.56
2023-05-09T09:36:47.342Z,46.53
2023-05-09T09:39:32.359Z,46.62
2023-05-09T09:42:17.249Z,46.26
2023-05-09T09:45:02.169Z,46.55
2023-05-09T09:47:47.172Z,46.54
2023-05-09T09:50:32.161Z,47.71
2023-05-09T09:53:17.185Z,47.20
2023-05-09T09:56:02.239Z,47.18
2023-05-09T09:58:47.327Z,45.29
2023-05-09T10:01:32.293Z,44.52
2023-05-09T10:04:17.342Z,46.00
2023-05-09T10:07:02.168Z,45.70
2023-05-09T10:09:47.180Z,44.92
2023-05-09T10:12:32.115Z,44.28
2023-05-09T10:15:17.167Z,43.42
2023-05-09T10:18:02.395Z,43.64
2023-05-09T10:20:47.084Z,43.28
2023-05-09T10:23:32.182Z,41.50
2023-05-09T10:26:17.083Z,40.77
2023-05-09T10:29:01.981Z,40.81
2023-05-09T10:31:46.924Z,39.61
2023-05-09T10:34:31.793Z,41.77
2023-05-09T10:37:16.642Z,38.23
2023-05-09T10:40:01.551Z,39.60
2023-05-09T10:42:46.689Z,40.74
2023-05-09T10:45:31.624Z,41.52
2023-05-09T10:48:16.691Z,38.43
2023-05-09T10:51:01.594Z,37.40
2023-05-09T10:53:46.530Z,36.58
2023-05-09T10:56:31.532Z,38.09
2023-05-09T10:59:16.519Z,37.14
2023-05-09T11:02:01.708Z,36.41
2023-05-09T11:04:46.549Z,36.90
2023-05-09T11:07:31.698Z,37.96
2023-05-09T11:10:16.623Z,37.39
2023-05-09T11:13:01.810Z,38.67
2023-05-09T11:15:46.797Z,38.21
2023-05-09T11:18:31.720Z,37.65
2023-05-09T11:21:16.598Z,37.10
2023-05-09T11:24:01.703Z,37.82
2023-05-09T11:26:46.823Z,37.55
2023-05-09T11:29:31.814Z,35.97
2023-05-09T11:32:16.950Z,36.76
2023-05-09T11:35:01.894Z,36.91
2023-05-09T11:37:46.849Z,37.35
2023-05-09T11:40:31.889Z,37.02
2023-05-09T11:43:16.898Z,35.19
2023-05-09T11:46:02.012Z,36.52
2023-05-09T11:48:46.924Z,36.29
2023-05-09T11:51:31.901Z,37.48
2023-05-09T11:54:16.803Z,38.89
2023-05-09T11:57:01.884Z,37.98
2023-05-09T11:59:46.841Z,39.51
2023-05-09T12:02:32.029Z,39.59
2023-05-09T12:05:17.176Z,40.15
2023-05-09T12:08:02.387Z,40.26
2023-05-09T12:10:47.424Z,38.33
2023-05-09T12:13:32.434Z,39.34
2023-05-09T12:16:17.449Z,38.99
2023-05-09T12:19:03.491Z,39.47
2023-05-09T12:21:48.868Z,39.53
2023-05-09T12:24:33.823Z,39.52
2023-05-09T12:27:19.002Z,40.62
2023-05-09T12:30:04.050Z,41.49
2023-05-09T12:32:48.896Z,41.44
2023-05-09T12:35:33.879Z,41.60
2023-05-09T12:38:18.845Z,41.40
2023-05-09T12:41:04.096Z,41.81
2023-05-09T12:43:48.858Z,42.71
2023-05-09T12:46:35.706Z,43.89
2023-05-09T12:49:21.003Z,43.99
2023-05-09T12:52:07.771Z,44.75
2023-05-09T12:54:54.075Z,44.94
2023-05-09T12:57:38.953Z,45.14
2023-05-09T13:00:23.927Z,43.65
2023-05-09T13:03:08.920Z,44.65
2023-05-09T13:05:53.725Z,45.33
2023-05-09T13:08:38.790Z,46.07
2023-05-09T13:11:23.797Z,46.90
2023-05-09T13:14:08.982Z,46.61
2023-05-09T13:16:54.045Z,46.59
2023-05-09T13:19:39.101Z,45.27
2023-05-09T13:22:24.108Z,46.65
2023-05-09T13:25:09.160Z,46.23
2023-05-09T13:27:54.060Z,47.55
2023-05-09T13:30:39.021Z,48.98
2023-05-09T13:33:26.419Z,48.30
2023-05-09T13:36:11.615Z,48.06
2023-05-09T13:38:56.573Z,46.21
2023-05-09T13:41:41.592Z,44.76
2023-05-09T13:44:26.566Z,47.06
2023-05-09T13:47:11.627Z,47.04
2023-05-09T13:49:56.651Z,46.65
2023-05-09T13:52:41.675Z,44.91
2023-05-09T13:55:26.750Z,42.10
2023-05-09T13:58:11.749Z,42.82
2023-05-09T14:00:56.854Z,45.70
2023-05-09T14:03:41.823Z,44.15
2023-05-09T14:06:26.874Z,43.32
2023-05-09T14:09:11.844Z,44.49
2023-05-09T14:11:56.831Z,44.92
2023-05-09T14:14:41.695Z,44.09
2023-05-09T14:17:26.859Z,43.03
2023-05-09T14:20:11.768Z,45.28
2023-05-09T14:22:56.735Z,47.68
2023-05-09T14:25:41.770Z,48.29
2023-05-09T14:28:26.801Z,47.25
2023-05-09T14:31:11.864Z,47.51
2023-05-09T14:33:56.816Z,48.88
2023-05-09T14:36:41.978Z,45.60
2023-05-09T14:39:26.834Z,46.06
2023-05-09T14:42:11.868Z,46.48
2023-05-09T14:44:56.745Z,46.86
2023-05-09T14:47:41.808Z,43.77
2023-05-09T14:50:26.838Z,45.46
2023-05-09T14:53:11.815Z,46.24
2023-05-09T14:55:56.935Z,47.42
2023-05-09T14:58:41.928Z,45.12
2023-05-09T15:01:26.939Z,46.14
2023-05-09T15:04:11.976Z,45.95
2023-05-09T15:06:57.020Z,47.11
2023-05-09T15:09:42.067Z,46.15
2023-05-09T15:12:27.072Z,45.91
2023-05-09T15:15:12.165Z,46.90
2023-05-09T15:17:57.047Z,54.16
2023-05-09T15:20:42.215Z,51.85
2023-05-09T15:23:27.316Z,54.38
2023-05-09T15:26:12.399Z,56.19
2023-05-09T15:28:57.401Z,56.14
2023-05-09T15:31:42.212Z,56.39
2023-05-09T15:34:27.277Z,56.21
2023-05-09T15:37:12.210Z,59.71
2023-05-09T15:39:57.431Z,58.69
2023-05-09T15:42:42.356Z,59.58
2023-05-09T15:45:27.517Z,59.51
2023-05-09T15:48:12.515Z,58.96
2023-05-09T15:50:57.683Z,57.69
2023-05-09T15:53:42.717Z,59.74
2023-05-09T15:56:27.583Z,63.28
2023-05-09T15:59:12.662Z,63.04
2023-05-09T16:01:57.603Z,60.19
2023-05-09T16:04:42.627Z,58.70
2023-05-09T16:07:27.532Z,59.49
2023-05-09T16:10:12.786Z,60.37
2023-05-09T16:12:57.694Z,56.94
2023-05-09T16:15:42.673Z,54.91
2023-05-09T16:18:27.735Z,57.47
2023-05-09T16:21:12.645Z,56.75
2023-05-09T16:23:57.808Z,55.83
2023-05-09T16:26:42.709Z,56.37
2023-05-09T16:29:27.876Z,57.33
2023-05-09T16:32:12.891Z,59.28
2023-05-09T16:34:57.808Z,59.80
2023-05-09T16:37:42.959Z,60.60
2023-05-09T16:40:27.839Z,64.83
2023-05-09T16:43:12.871Z,63.31
2023-05-09T16:45:57.864Z,61.79
2023-05-09T16:48:42.907Z,61.93
2023-05-09T16:51:27.769Z,61.79
2023-05-09T16:54:12.848Z,62.85
2023-05-09T16:56:57.776Z,65.41
2023-05-09T16:59:42.958Z,65.52
2023-05-09T17:02:27.975Z,66.49
2023-05-09T17:05:12.806Z,64.62
2023-05-09T17:07:57.966Z,65.24
2023-05-09T17:10:42.862Z,65.00
2023-05-09T17:13:27.941Z,65.29
2023-05-09T17:16:12.875Z,65.03
2023-05-09T17:18:57.872Z,62.61
2023-05-09T17:21:42.803Z,63.75
2023-05-09T17:24:27.814Z,62.31
2023-05-09T17:27:12.946Z,62.88
2023-05-09T17:29:57.964Z,62.13
2023-05-09T17:32:43.240Z,59.85
2023-05-09T17:35:28.087Z,59.53
2023-05-09T17:38:13.118Z,61.38
2023-05-09T17:40:57.965Z,60.98
2023-05-09T17:43:43.027Z,59.23
2023-05-09T17:46:28.097Z,60.22
2023-05-09T17:49:12.996Z,58.94
2023-05-09T17:51:58.108Z,59.06
2023-05-09T17:54:42.986Z,59.79
2023-05-09T17:57:28.045Z,59.30
2023-05-09T18:00:13.111Z,61.12
2023-05-09T18:02:58.089Z,61.95
2023-05-09T18:05:42.916Z,62.13
2023-05-09T18:08:28.092Z,61.70
2023-05-09T18:11:13.284Z,61.07
2023-05-09T18:13:58.305Z,61.26
2023-05-09T18:16:43.375Z,61.31
2023-05-09T18:19:28.257Z,62.64
2023-05-09T18:22:13.230Z,61.81
2023-05-09T18:24:58.287Z,61.97
2023-05-09T18:27:43.489Z,62.43
2023-05-09T18:30:28.505Z,62.45
2023-05-09T18:33:13.511Z,64.04
2023-05-09T18:35:58.666Z,65.26
2023-05-09T18:38:43.723Z,66.54
2023-05-09T18:41:28.715Z,66.46
2023-05-09T18:44:14.555Z,66.92
2023-05-09T18:46:59.922Z,65.85
2023-05-09T18:49:44.928Z,64.74
2023-05-09T18:52:29.771Z,65.77
2023-05-09T18:55:14.918Z,64.64
2023-05-09T18:57:59.901Z,65.57
2023-05-09T19:00:44.962Z,64.67
2023-05-09T19:03:29.993Z,67.71
2023-05-09T19:06:15.069Z,68.07
2023-05-09T19:09:00.180Z,69.02
2023-05-09T19:11:45.276Z,69.14
2023-05-09T19:14:30.441Z,68.62
2023-05-09T19:17:15.441Z,68.68
2023-05-09T19:20:00.601Z,68.27
2023-05-09T19:22:45.635Z,70.15
2023-05-09T19:25:30.693Z,70.56
2023-05-09T19:28:15.700Z,71.16
2023-05-09T19:31:00.686Z,72.03
2023-05-09T19:33:45.805Z,70.22
2023-05-09T19:36:30.678Z,67.87
2023-05-09T19:39:15.848Z,67.28
2023-05-09T19:42:00.981Z,68.78
2023-05-09T19:44:45.998Z,68.03
2023-05-09T19:47:30.867Z,66.85
2023-05-09T19:50:16.103Z,67.49
2023-05-09T19:53:01.361Z,67.44
2023-05-09T19:55:46.274Z,66.46
2023-05-09T19:58:31.427Z,65.71
2023-05-09T20:01:16.350Z,65.91
2023-05-09T20:04:01.427Z,64.89
2023-05-09T20:06:46.338Z,65.14
2023-05-09T20:09:31.440Z,64.64
2023-05-09T20:12:16.522Z,62.14
2023-05-09T20:15:01.380Z,62.78
2023-05-09T20:17:46.327Z,64.50
2023-05-09T20:20:31.224Z,65.93
2023-05-09T20:23:16.240Z,67.84
2023-05-09T20:26:01.286Z,69.50
2023-05-09T20:28:46.312Z,68.65
2023-05-09T20:31:31.252Z,69.48
2023-05-09T20:34:16.177Z,67.70
2023-05-09T20:37:01.164Z,66.14
2023-05-09T20:39:46.131Z,65.42
2023-05-09T20:42:31.157Z,66.40
2023-05-09T20:45:16.065Z,65.48
2023-05-09T20:48:01.205Z,65.29
2023-05-09T20:50:46.114Z,65.65
2023-05-09T20:53:31.307Z,65.36
2023-05-09T20:56:16.115Z,65.08
2023-05-09T20:59:01.208Z,64.98
2023-05-09T21:01:46.077Z,62.85
2023-05-09T21:04:31.049Z,63.56
2023-05-09T21:07:16.104Z,63.51
2023-05-09T21:10:00.967Z,63.98
2023-05-09T21:12:46.009Z,64.12
2023-05-09T21:15:30.926Z,64.11
2023-05-09T21:18:16.204Z,64.19
2023-05-09T21:21:01.246Z,65.45
2023-05-09T21:23:46.256Z,65.12
2023-05-09T21:26:31.336Z,64.48
2023-05-09T21:29:16.227Z,64.67
2023-05-09T21:32:01.303Z,65.08
2023-05-09T21:34:46.383Z,64.92
2023-05-09T21:37:31.173Z,65.03
2023-05-09T21:40:16.445Z,65.12
2023-05-09T21:43:01.618Z,65.75
2023-05-09T21:45:46.530Z,66.53
2023-05-09T21:48:31.602Z,66.85
2023-05-09T21:51:16.796Z,67.23
2023-05-09T21:54:01.823Z,67.04
2023-05-09T21:56:46.913Z,67.46
2023-05-09T21:59:31.949Z,66.55
2023-05-09T22:02:17.170Z,65.45
2023-05-09T22:05:01.968Z,66.05
2023-05-09T22:07:46.998Z,64.74
2023-05-09T22:10:31.944Z,65.80
2023-05-09T22:13:16.869Z,67.34
2023-05-09T22:16:01.955Z,68.20
2023-05-09T22:18:46.876Z,69.33
2023-05-09T22:21:31.895Z,71.01
2023-05-09T22:24:16.699Z,72.01
2023-05-09T22:27:01.701Z,72.08
2023-05-09T22:29:46.656Z,71.84
2023-05-09T22:32:31.665Z,71.52
2023-05-09T22:35:16.649Z,72.43
2023-05-09T22:38:01.554Z,71.77
2023-05-09T22:40:46.629Z,71.37
2023-05-09T22:43:38.868Z,71.21
2023-05-09T22:46:24.686Z,71.13
2023-05-09T22:49:09.674Z,70.92
2023-05-09T22:51:54.631Z,71.00
2023-05-09T22:54:39.822Z,69.02
2023-05-09T22:57:24.917Z,70.58
2023-05-09T23:00:09.780Z,69.52
2023-05-09T23:02:54.883Z,67.87
2023-05-09T23:05:39.856Z,65.44
2023-05-09T23:08:25.034Z,66.07
2023-05-09T23:11:09.842Z,66.91
2023-05-09T23:13:54.979Z,65.43
2023-05-09T23:16:39.944Z,65.42
2023-05-09T23:19:25.008Z,66.67
2023-05-09T23:22:10.152Z,67.04
2023-05-09T23:24:55.243Z,66.71
2023-05-09T23:27:40.257Z,65.87
2023-05-09T23:30:25.160Z,65.59
2023-05-09T23:33:10.314Z,66.56
2023-05-09T23:35:55.365Z,67.13
2023-05-09T23:38:40.435Z,67.70
2023-05-09T23:41:25.465Z,68.45
2023-05-09T23:44:10.412Z,68.68
2023-05-09T23:46:55.706Z,68.53
2023-05-09T23:49:40.541Z,68.13
2023-05-09T23:52:25.786Z,68.20
2023-05-09T23:55:10.792Z,67.90
2023-05-09T23:57:55.852Z,68.21
